This is the latest recevied weather packets stored in our database for station/object K3RUP-1. If no packets are shown the sender has not sent any weather packets the latest 10 day(s).
| Time | Temp. | Humidity | Pressure | Rain* | Wind** | Luminosity | Snow |
|---|---|---|---|---|---|---|---|
| 1778010269 | 27.78° C | 47% | 1008.7 hPa | 0 mm | - | 578 W/m² | - |
| 1778009969 | 27.78° C | 47% | 1009.1 hPa | 0 mm | - | 565 W/m² | - |
| 1778009667 | 27.22° C | 46% | 1009 hPa | 0 mm | - | 504 W/m² | - |
| 1778009364 | 27.22° C | 47% | 1008.9 hPa | 0 mm | - | 569 W/m² | - |
| 1778009062 | 27.22° C | 46% | 1009.1 hPa | 0 mm | - | 564 W/m² | - |
| 1778008760 | 27.78° C | 46% | 1009.4 hPa | 0 mm | - | 604 W/m² | - |
| 1778008458 | 28.33° C | 45% | 1009 hPa | 0 mm | - | 592 W/m² | - |
| 1778008155 | 28.33° C | 45% | 1009.3 hPa | 0 mm | - | 627 W/m² | - |
| 1778007850 | 29.44° C | 39% | 1009.3 hPa | 0 mm | - | 631 W/m² | - |
| 1778007545 | 30° C | 33% | 1009.4 hPa | 0 mm | - | 621 W/m² | - |
| 1778007243 | 29.44° C | 35% | 1009.6 hPa | 0 mm | - | 648 W/m² | - |
| 1778006939 | 29.44° C | 33% | 1009.4 hPa | 0 mm | - | 702 W/m² | - |
| 1778006636 | 30° C | 36% | 1009.7 hPa | 0 mm | - | 649 W/m² | - |
| 1778006333 | 30° C | 33% | 1009.5 hPa | 0 mm | - | 637 W/m² | - |
| 1778006030 | 29.44° C | 37% | 1009.4 hPa | 0 mm | - | 556 W/m² | - |
| 1778005726 | 29.44° C | 36% | 1009.9 hPa | 0 mm | - | 628 W/m² | - |
| 1778005423 | 28.89° C | 40% | 1009.8 hPa | 0 mm | - | 695 W/m² | - |
| 1778005120 | 28.33° C | 43% | 1010 hPa | 0 mm | - | 657 W/m² | - |
| 1778004817 | 28.33° C | 44% | 1010 hPa | 0 mm | - | 680 W/m² | - |
| 1778004513 | 28.89° C | 44% | 1010.2 hPa | 0 mm | - | 715 W/m² | - |
| 1778004210 | 28.89° C | 45% | 1010 hPa | 0 mm | - | 690 W/m² | - |
| 1778003907 | 27.78° C | 47% | 1010.3 hPa | 0 mm | - | 667 W/m² | - |
| 1778003603 | 27.78° C | 46% | 1010.3 hPa | 0 mm | - | 697 W/m² | - |
| 1778003300 | 27.78° C | 47% | 1010 hPa | 0 mm | - | 716 W/m² | - |
| 1778002998 | 27.78° C | 46% | 1010.1 hPa | 0 mm | - | 744 W/m² | - |
* Rain latest hour (hover to see other rain measurements)
** Current wind speed in m/s (hover to see current wind gust speed)